sensor_id;sensor_type;location;lat;lon;timestamp;pressure;altitude;pressure_sealevel;temperature;humidity
11198;BME280;5655;48.744;9.162;2023-03-30T00:01:11;95887.47;;;16.58;100.00
11198;BME280;5655;48.744;9.162;2023-03-30T00:03:39;95881.09;;;16.45;100.00
11198;BME280;5655;48.744;9.162;2023-03-30T00:06:07;95887.47;;;16.58;100.00
11198;BME280;5655;48.744;9.162;2023-03-30T00:08:35;95888.63;;;16.81;100.00
11198;BME280;5655;48.744;9.162;2023-03-30T00:11:04;95884.38;;;16.79;100.00
11198;BME280;5655;48.744;9.162;2023-03-30T00:13:30;95894.78;;;16.81;100.00
11198;BME280;5655;48.744;9.162;2023-03-30T00:15:56;95889.09;;;16.75;100.00
11198;BME280;5655;48.744;9.162;2023-03-30T00:18:21;95877.44;;;16.78;100.00
11198;BME280;5655;48.744;9.162;2023-03-30T00:20:47;95869.16;;;16.89;100.00
11198;BME280;5655;48.744;9.162;2023-03-30T00:23:14;95874.16;;;16.91;100.00
11198;BME280;5655;48.744;9.162;2023-03-30T00:25:41;95866.38;;;16.93;100.00
11198;BME280;5655;48.744;9.162;2023-03-30T00:28:06;95865.69;;;16.89;100.00
11198;BME280;5655;48.744;9.162;2023-03-30T00:30:32;95866.84;;;16.45;100.00
11198;BME280;5655;48.744;9.162;2023-03-30T00:32:57;95864.22;;;16.64;100.00
11198;BME280;5655;48.744;9.162;2023-03-30T00:35:23;95870.03;;;16.63;100.00
11198;BME280;5655;48.744;9.162;2023-03-30T00:37:50;95866.56;;;16.62;100.00
11198;BME280;5655;48.744;9.162;2023-03-30T00:40:19;95854.72;;;16.96;100.00
11198;BME280;5655;48.744;9.162;2023-03-30T00:42:44;95863.03;;;16.65;100.00
11198;BME280;5655;48.744;9.162;2023-03-30T00:47:55;95847.25;;;16.84;100.00
11198;BME280;5655;48.744;9.162;2023-03-30T00:50:26;95834.34;;;16.71;100.00
11198;BME280;5655;48.744;9.162;2023-03-30T00:52:55;95834.34;;;16.71;100.00
11198;BME280;5655;48.744;9.162;2023-03-30T00:55:23;95829.69;;;16.92;100.00
11198;BME280;5655;48.744;9.162;2023-03-30T00:57:51;95828.63;;;16.69;100.00
11198;BME280;5655;48.744;9.162;2023-03-30T01:00:18;95831.66;;;16.71;100.00
11198;BME280;5655;48.744;9.162;2023-03-30T01:02:49;95829.78;;;16.68;100.00
11198;BME280;5655;48.744;9.162;2023-03-30T01:05:20;95834.16;;;16.39;100.00
11198;BME280;5655;48.744;9.162;2023-03-30T01:07:45;95829.09;;;16.64;100.00
11198;BME280;5655;48.744;9.162;2023-03-30T01:10:14;95827.31;;;16.31;100.00
11198;BME280;5655;48.744;9.162;2023-03-30T01:12:39;95815.03;;;16.07;100.00
11198;BME280;5655;48.744;9.162;2023-03-30T01:15:06;95811.94;;;16.51;100.00
11198;BME280;5655;48.744;9.162;2023-03-30T01:23:53;95822.66;;;16.55;100.00
11198;BME280;5655;48.744;9.162;2023-03-30T01:26:46;95838.72;;;16.42;100.00
11198;BME280;5655;48.744;9.162;2023-03-30T01:29:20;95847.44;;;16.30;100.00
11198;BME280;5655;48.744;9.162;2023-03-30T01:40:14;95844.25;;;16.12;100.00
11198;BME280;5655;48.744;9.162;2023-03-30T01:45:46;95836.50;;;15.91;100.00
11198;BME280;5655;48.744;9.162;2023-03-30T01:48:08;95816.47;;;15.88;100.00
11198;BME280;5655;48.744;9.162;2023-03-30T01:50:40;95811.13;;;15.84;100.00
11198;BME280;5655;48.744;9.162;2023-03-30T01:53:14;95828.84;;;15.85;100.00
11198;BME280;5655;48.744;9.162;2023-03-30T01:55:54;95834.69;;;15.57;100.00
11198;BME280;5655;48.744;9.162;2023-03-30T01:58:42;95827.09;;;15.75;100.00
11198;BME280;5655;48.744;9.162;2023-03-30T02:01:10;95832.47;;;15.49;100.00
11198;BME280;5655;48.744;9.162;2023-03-30T02:03:40;95820.28;;;15.67;100.00
11198;BME280;5655;48.744;9.162;2023-03-30T02:06:28;95824.00;;;15.50;100.00
11198;BME280;5655;48.744;9.162;2023-03-30T02:08:55;95823.19;;;15.53;100.00
11198;BME280;5655;48.744;9.162;2023-03-30T02:11:24;95825.53;;;15.51;100.00
11198;BME280;5655;48.744;9.162;2023-03-30T02:13:51;95826.69;;;15.20;100.00
11198;BME280;5655;48.744;9.162;2023-03-30T02:16:30;95828.09;;;15.31;100.00
11198;BME280;5655;48.744;9.162;2023-03-30T02:18:58;95839.00;;;15.21;100.00
11198;BME280;5655;48.744;9.162;2023-03-30T02:21:24;95836.63;;;15.26;100.00
11198;BME280;5655;48.744;9.162;2023-03-30T02:23:52;95840.88;;;15.24;100.00
11198;BME280;5655;48.744;9.162;2023-03-30T02:26:18;95835.88;;;15.26;100.00
11198;BME280;5655;48.744;9.162;2023-03-30T02:28:45;95837.06;;;15.21;100.00
11198;BME280;5655;48.744;9.162;2023-03-30T02:31:13;95841.03;;;15.43;100.00
11198;BME280;5655;48.744;9.162;2023-03-30T02:34:07;95851.75;;;15.47;100.00
11198;BME280;5655;48.744;9.162;2023-03-30T02:42:51;95841.72;;;15.48;100.00
11198;BME280;5655;48.744;9.162;2023-03-30T02:45:32;95845.13;;;15.55;100.00
11198;BME280;5655;48.744;9.162;2023-03-30T02:48:17;95837.03;;;15.55;100.00
11198;BME280;5655;48.744;9.162;2023-03-30T02:59:01;95812.66;;;15.32;100.00
11198;BME280;5655;48.744;9.162;2023-03-30T03:01:44;95798.94;;;15.23;100.00
11198;BME280;5655;48.744;9.162;2023-03-30T03:04:13;95799.19;;;15.02;100.00
11198;BME280;5655;48.744;9.162;2023-03-30T03:06:41;95770.78;;;14.97;100.00
11198;BME280;5655;48.744;9.162;2023-03-30T03:09:07;95758.91;;;14.61;100.00
11198;BME280;5655;48.744;9.162;2023-03-30T03:11:32;95752.66;;;14.67;100.00
11198;BME280;5655;48.744;9.162;2023-03-30T03:13:58;95740.34;;;14.70;100.00
11198;BME280;5655;48.744;9.162;2023-03-30T03:16:23;95720.59;;;14.46;100.00
11198;BME280;5655;48.744;9.162;2023-03-30T03:18:49;95715.78;;;14.64;100.00
11198;BME280;5655;48.744;9.162;2023-03-30T03:21:14;95717.56;;;14.44;100.00
11198;BME280;5655;48.744;9.162;2023-03-30T03:23:40;95724.25;;;14.63;100.00
11198;BME280;5655;48.744;9.162;2023-03-30T03:26:07;95716.84;;;14.40;100.00
11198;BME280;5655;48.744;9.162;2023-03-30T03:28:33;95720.81;;;14.62;100.00
11198;BME280;5655;48.744;9.162;2023-03-30T03:30:59;95712.47;;;14.53;100.00
11198;BME280;5655;48.744;9.162;2023-03-30T03:33:27;95722.78;;;14.58;100.00
11198;BME280;5655;48.744;9.162;2023-03-30T03:35:53;95715.59;;;14.48;100.00
11198;BME280;5655;48.744;9.162;2023-03-30T03:38:23;95702.34;;;14.27;100.00
11198;BME280;5655;48.744;9.162;2023-03-30T03:40:50;95701.25;;;14.21;100.00
11198;BME280;5655;48.744;9.162;2023-03-30T03:43:15;95700.38;;;14.31;100.00
11198;BME280;5655;48.744;9.162;2023-03-30T03:45:41;95720.97;;;14.48;100.00
11198;BME280;5655;48.744;9.162;2023-03-30T03:48:06;95722.22;;;14.40;100.00
11198;BME280;5655;48.744;9.162;2023-03-30T03:50:32;95727.88;;;14.12;100.00
11198;BME280;5655;48.744;9.162;2023-03-30T03:52:57;95711.25;;;14.20;100.00
11198;BME280;5655;48.744;9.162;2023-03-30T03:55:22;95716.03;;;14.05;100.00
11198;BME280;5655;48.744;9.162;2023-03-30T03:57:48;95711.50;;;14.33;100.00
11198;BME280;5655;48.744;9.162;2023-03-30T04:00:13;95713.66;;;14.15;100.00
11198;BME280;5655;48.744;9.162;2023-03-30T04:02:43;95718.34;;;14.44;100.00
11198;BME280;5655;48.744;9.162;2023-03-30T04:05:09;95706.94;;;14.30;100.00
11198;BME280;5655;48.744;9.162;2023-03-30T04:07:34;95706.41;;;14.42;100.00
11198;BME280;5655;48.744;9.162;2023-03-30T04:10:04;95697.28;;;14.36;100.00
11198;BME280;5655;48.744;9.162;2023-03-30T04:12:30;95693.84;;;14.32;100.00
11198;BME280;5655;48.744;9.162;2023-03-30T04:14:55;95680.09;;;14.23;100.00
11198;BME280;5655;48.744;9.162;2023-03-30T04:17:21;95675.47;;;14.23;100.00
11198;BME280;5655;48.744;9.162;2023-03-30T04:19:48;95650.06;;;14.24;100.00
11198;BME280;5655;48.744;9.162;2023-03-30T04:22:21;95652.63;;;14.35;100.00
11198;BME280;5655;48.744;9.162;2023-03-30T04:24:49;95652.22;;;14.40;100.00
11198;BME280;5655;48.744;9.162;2023-03-30T04:27:14;95645.88;;;14.23;100.00
11198;BME280;5655;48.744;9.162;2023-03-30T04:29:41;95631.91;;;14.01;100.00
11198;BME280;5655;48.744;9.162;2023-03-30T04:32:09;95637.38;;;14.25;100.00
11198;BME280;5655;48.744;9.162;2023-03-30T04:34:39;95630.03;;;14.29;100.00
11198;BME280;5655;48.744;9.162;2023-03-30T04:37:09;95617.66;;;14.35;100.00
11198;BME280;5655;48.744;9.162;2023-03-30T04:39:34;95612.44;;;14.21;100.00
11198;BME280;5655;48.744;9.162;2023-03-30T04:42:00;95605.44;;;14.27;100.00
11198;BME280;5655;48.744;9.162;2023-03-30T04:44:29;95605.44;;;14.27;100.00
11198;BME280;5655;48.744;9.162;2023-03-30T04:46:55;95597.28;;;14.34;100.00
11198;BME280;5655;48.744;9.162;2023-03-30T04:49:20;95618.34;;;14.42;100.00
11198;BME280;5655;48.744;9.162;2023-03-30T04:51:46;95609.19;;;14.33;100.00
11198;BME280;5655;48.744;9.162;2023-03-30T04:54:11;95611.53;;;14.31;100.00
11198;BME280;5655;48.744;9.162;2023-03-30T04:56:36;95613.16;;;14.25;100.00
11198;BME280;5655;48.744;9.162;2023-03-30T04:59:02;95608.47;;;14.29;100.00
11198;BME280;5655;48.744;9.162;2023-03-30T05:01:27;95621.22;;;14.25;100.00
11198;BME280;5655;48.744;9.162;2023-03-30T05:03:52;95617.38;;;14.26;100.00
11198;BME280;5655;48.744;9.162;2023-03-30T05:06:18;95618.09;;;14.30;100.00
11198;BME280;5655;48.744;9.162;2023-03-30T05:08:43;95616.97;;;14.27;100.00
11198;BME280;5655;48.744;9.162;2023-03-30T05:11:08;95606.88;;;14.35;100.00
11198;BME280;5655;48.744;9.162;2023-03-30T05:13:34;95595.84;;;14.26;100.00
11198;BME280;5655;48.744;9.162;2023-03-30T05:15:59;95591.84;;;14.41;100.00
11198;BME280;5655;48.744;9.162;2023-03-30T05:18:25;95594.56;;;14.34;100.00
11198;BME280;5655;48.744;9.162;2023-03-30T05:20:50;95593.59;;;14.51;100.00
11198;BME280;5655;48.744;9.162;2023-03-30T05:23:15;95587.56;;;14.43;100.00
11198;BME280;5655;48.744;9.162;2023-03-30T05:25:42;95587.91;;;14.72;100.00
11198;BME280;5655;48.744;9.162;2023-03-30T05:28:13;95579.69;;;14.56;100.00
11198;BME280;5655;48.744;9.162;2023-03-30T05:30:38;95584.25;;;14.59;100.00
11198;BME280;5655;48.744;9.162;2023-03-30T05:33:04;95586.69;;;14.50;100.00
11198;BME280;5655;48.744;9.162;2023-03-30T05:35:29;95562.50;;;14.46;100.00
11198;BME280;5655;48.744;9.162;2023-03-30T05:37:55;95575.00;;;14.60;100.00
11198;BME280;5655;48.744;9.162;2023-03-30T05:40:20;95579.13;;;14.41;100.00
11198;BME280;5655;48.744;9.162;2023-03-30T05:42:45;95578.97;;;14.52;100.00
11198;BME280;5655;48.744;9.162;2023-03-30T05:45:11;95564.53;;;14.39;100.00
11198;BME280;5655;48.744;9.162;2023-03-30T05:47:36;95560.84;;;14.56;100.00
11198;BME280;5655;48.744;9.162;2023-03-30T05:50:02;95583.94;;;14.80;100.00
11198;BME280;5655;48.744;9.162;2023-03-30T05:52:27;95579.38;;;14.50;100.00
11198;BME280;5655;48.744;9.162;2023-03-30T05:54:52;95594.00;;;14.76;100.00
11198;BME280;5655;48.744;9.162;2023-03-30T05:57:18;95599.63;;;14.62;100.00
11198;BME280;5655;48.744;9.162;2023-03-30T05:59:43;95614.50;;;14.97;100.00
11198;BME280;5655;48.744;9.162;2023-03-30T06:02:10;95619.44;;;14.98;100.00
11198;BME280;5655;48.744;9.162;2023-03-30T06:04:37;95622.59;;;14.70;100.00
11198;BME280;5655;48.744;9.162;2023-03-30T06:07:03;95624.66;;;14.59;100.00
11198;BME280;5655;48.744;9.162;2023-03-30T06:09:29;95626.06;;;14.40;100.00
11198;BME280;5655;48.744;9.162;2023-03-30T06:11:54;95634.69;;;14.25;100.00
11198;BME280;5655;48.744;9.162;2023-03-30T06:14:20;95637.59;;;14.41;100.00
11198;BME280;5655;48.744;9.162;2023-03-30T06:16:46;95645.25;;;14.42;100.00
11198;BME280;5655;48.744;9.162;2023-03-30T06:19:11;95655.78;;;14.30;100.00
11198;BME280;5655;48.744;9.162;2023-03-30T06:21:38;95648.38;;;14.41;100.00
11198;BME280;5655;48.744;9.162;2023-03-30T06:24:04;95667.53;;;14.46;100.00
11198;BME280;5655;48.744;9.162;2023-03-30T06:26:29;95650.06;;;14.24;100.00
11198;BME280;5655;48.744;9.162;2023-03-30T06:28:54;95664.81;;;14.46;100.00
11198;BME280;5655;48.744;9.162;2023-03-30T06:31:20;95651.31;;;14.50;100.00
11198;BME280;5655;48.744;9.162;2023-03-30T06:33:45;95653.38;;;14.39;100.00
11198;BME280;5655;48.744;9.162;2023-03-30T06:36:12;95671.16;;;14.63;100.00
11198;BME280;5655;48.744;9.162;2023-03-30T06:38:37;95669.53;;;14.69;100.00
11198;BME280;5655;48.744;9.162;2023-03-30T06:41:04;95681.72;;;14.77;100.00
11198;BME280;5655;48.744;9.162;2023-03-30T06:43:32;95679.16;;;14.70;100.00
11198;BME280;5655;48.744;9.162;2023-03-30T06:45:57;95673.38;;;14.68;100.00
11198;BME280;5655;48.744;9.162;2023-03-30T06:48:23;95686.81;;;14.72;100.00
11198;BME280;5655;48.744;9.162;2023-03-30T06:50:52;95706.69;;;14.81;100.00
11198;BME280;5655;48.744;9.162;2023-03-30T06:53:18;95717.09;;;15.10;100.00
11198;BME280;5655;48.744;9.162;2023-03-30T06:55:44;95741.16;;;14.63;100.00
11198;BME280;5655;48.744;9.162;2023-03-30T06:58:09;95750.69;;;15.02;100.00
11198;BME280;5655;48.744;9.162;2023-03-30T07:00:35;95746.16;;;14.65;100.00
11198;BME280;5655;48.744;9.162;2023-03-30T07:03:01;95748.91;;;14.61;100.00
11198;BME280;5655;48.744;9.162;2023-03-30T07:05:28;95758.09;;;14.64;100.00
11198;BME280;5655;48.744;9.162;2023-03-30T07:07:53;95763.19;;;14.54;100.00
11198;BME280;5655;48.744;9.162;2023-03-30T07:10:20;95779.22;;;14.69;100.00
11198;BME280;5655;48.744;9.162;2023-03-30T07:12:45;95772.97;;;14.41;100.00
11198;BME280;5655;48.744;9.162;2023-03-30T07:15:11;95762.47;;;14.50;100.00
11198;BME280;5655;48.744;9.162;2023-03-30T07:17:36;95777.28;;;14.69;100.00
11198;BME280;5655;48.744;9.162;2023-03-30T07:20:02;95772.97;;;14.41;100.00
11198;BME280;5655;48.744;9.162;2023-03-30T07:22:28;95766.94;;;14.64;100.00
11198;BME280;5655;48.744;9.162;2023-03-30T07:24:54;95779.13;;;14.42;100.00
11198;BME280;5655;48.744;9.162;2023-03-30T07:27:20;95775.47;;;14.22;100.00
11198;BME280;5655;48.744;9.162;2023-03-30T07:29:45;95783.28;;;14.09;100.00
11198;BME280;5655;48.744;9.162;2023-03-30T07:32:10;95789.44;;;14.09;100.00
11198;BME280;5655;48.744;9.162;2023-03-30T07:34:36;95785.50;;;14.18;100.00
11198;BME280;5655;48.744;9.162;2023-03-30T07:37:01;95777.44;;;14.18;100.00
11198;BME280;5655;48.744;9.162;2023-03-30T07:39:27;95774.25;;;13.85;100.00
11198;BME280;5655;48.744;9.162;2023-03-30T07:41:53;95770.22;;;14.07;100.00
11198;BME280;5655;48.744;9.162;2023-03-30T07:44:18;95771.13;;;13.90;100.00
11198;BME280;5655;48.744;9.162;2023-03-30T07:46:45;95734.72;;;14.20;100.00
11198;BME280;5655;48.744;9.162;2023-03-30T07:49:10;95785.00;;;13.85;100.00
11198;BME280;5655;48.744;9.162;2023-03-30T07:51:35;95794.31;;;13.77;100.00
11198;BME280;5655;48.744;9.162;2023-03-30T07:54:01;95786.34;;;14.07;100.00
11198;BME280;5655;48.744;9.162;2023-03-30T07:56:27;95781.97;;;14.24;100.00
11198;BME280;5655;48.744;9.162;2023-03-30T07:58:52;95769.34;;;14.18;100.00
11198;BME280;5655;48.744;9.162;2023-03-30T08:01:18;95758.53;;;14.62;100.00
11198;BME280;5655;48.744;9.162;2023-03-30T08:03:43;95768.19;;;14.56;100.00
11198;BME280;5655;48.744;9.162;2023-03-30T08:06:09;95763.44;;;14.67;100.00
11198;BME280;5655;48.744;9.162;2023-03-30T08:08:35;95774.31;;;14.60;100.00
11198;BME280;5655;48.744;9.162;2023-03-30T08:11:03;95792.97;;;14.44;100.00
11198;BME280;5655;48.744;9.162;2023-03-30T08:13:29;95814.34;;;14.17;100.00
11198;BME280;5655;48.744;9.162;2023-03-30T08:15:57;95823.84;;;14.29;100.00
11198;BME280;5655;48.744;9.162;2023-03-30T08:18:22;95832.31;;;14.27;100.00
11198;BME280;5655;48.744;9.162;2023-03-30T08:20:51;95856.59;;;14.24;100.00
11198;BME280;5655;48.744;9.162;2023-03-30T08:23:18;95869.75;;;14.15;100.00
11198;BME280;5655;48.744;9.162;2023-03-30T08:25:44;95866.13;;;14.28;100.00
11198;BME280;5655;48.744;9.162;2023-03-30T08:28:17;95871.81;;;13.96;100.00
11198;BME280;5655;48.744;9.162;2023-03-30T08:30:42;95859.50;;;13.95;100.00
11198;BME280;5655;48.744;9.162;2023-03-30T08:33:07;95838.88;;;14.26;100.00
11198;BME280;5655;48.744;9.162;2023-03-30T08:35:33;95846.34;;;14.04;100.00
11198;BME280;5655;48.744;9.162;2023-03-30T08:37:58;95860.78;;;14.25;100.00
11198;BME280;5655;48.744;9.162;2023-03-30T08:40:24;95858.53;;;14.20;100.00
11198;BME280;5655;48.744;9.162;2023-03-30T08:43:11;95856.94;;;14.26;100.00
11198;BME280;5655;48.744;9.162;2023-03-30T08:45:41;95859.91;;;14.42;100.00
11198;BME280;5655;48.744;9.162;2023-03-30T08:48:16;95858.91;;;14.63;100.00
11198;BME280;5655;48.744;9.162;2023-03-30T08:50:51;95838.84;;;14.30;100.00
11198;BME280;5655;48.744;9.162;2023-03-30T08:53:18;95830.34;;;14.72;100.00
11198;BME280;5655;48.744;9.162;2023-03-30T08:55:57;95812.13;;;14.49;100.00
11198;BME280;5655;48.744;9.162;2023-03-30T09:01:19;95806.75;;;14.46;100.00
11198;BME280;5655;48.744;9.162;2023-03-30T09:06:49;95793.00;;;14.37;100.00
11198;BME280;5655;48.744;9.162;2023-03-30T09:09:17;95804.75;;;14.13;100.00
11198;BME280;5655;48.744;9.162;2023-03-30T09:11:45;95804.34;;;14.18;100.00
11198;BME280;5655;48.744;9.162;2023-03-30T09:14:25;95803.38;;;13.97;100.00
11198;BME280;5655;48.744;9.162;2023-03-30T09:17:04;95775.78;;;13.86;100.00
11198;BME280;5655;48.744;9.162;2023-03-30T09:19:40;95772.94;;;13.63;100.00
11198;BME280;5655;48.744;9.162;2023-03-30T09:22:11;95770.38;;;13.93;100.00
11198;BME280;5655;48.744;9.162;2023-03-30T09:24:37;95771.19;;;13.87;100.00
11198;BME280;5655;48.744;9.162;2023-03-30T09:29:47;95761.19;;;14.25;100.00
11198;BME280;5655;48.744;9.162;2023-03-30T09:32:26;95770.47;;;14.20;100.00
11198;BME280;5655;48.744;9.162;2023-03-30T09:35:12;95800.31;;;13.95;100.00
11198;BME280;5655;48.744;9.162;2023-03-30T09:37:39;95794.31;;;13.77;100.00
11198;BME280;5655;48.744;9.162;2023-03-30T09:40:31;95797.13;;;14.07;100.00
11198;BME280;5655;48.744;9.162;2023-03-30T09:43:42;95793.28;;;14.08;100.00
11198;BME280;5655;48.744;9.162;2023-03-30T09:46:05;95823.66;;;14.09;100.00
11198;BME280;5655;48.744;9.162;2023-03-30T09:48:43;95823.53;;;14.20;100.00
11198;BME280;5655;48.744;9.162;2023-03-30T09:51:26;95827.53;;;14.04;100.00
11198;BME280;5655;48.744;9.162;2023-03-30T09:53:58;95828.19;;;14.16;100.00
11198;BME280;5655;48.744;9.162;2023-03-30T09:59:24;95831.59;;;14.23;100.00
11198;BME280;5655;48.744;9.162;2023-03-30T10:01:52;95836.25;;;14.16;100.00
11198;BME280;5655;48.744;9.162;2023-03-30T10:04:32;95833.28;;;14.03;100.00
11198;BME280;5655;48.744;9.162;2023-03-30T10:06:57;95826.41;;;13.98;100.00
11198;BME280;5655;48.744;9.162;2023-03-30T10:09:23;95834.75;;;14.11;100.00
11198;BME280;5655;48.744;9.162;2023-03-30T10:11:50;95828.28;;;14.49;100.00
11198;BME280;5655;48.744;9.162;2023-03-30T10:14:25;95826.84;;;14.38;100.00
11198;BME280;5655;48.744;9.162;2023-03-30T10:16:51;95823.72;;;14.43;100.00
11198;BME280;5655;48.744;9.162;2023-03-30T10:19:19;95837.53;;;14.82;100.00
11198;BME280;5655;48.744;9.162;2023-03-30T10:21:46;95825.00;;;14.69;100.00
11198;BME280;5655;48.744;9.162;2023-03-30T10:24:24;95822.59;;;15.08;100.00
11198;BME280;5655;48.744;9.162;2023-03-30T10:26:54;95816.91;;;15.03;100.00
11198;BME280;5655;48.744;9.162;2023-03-30T10:29:22;95816.19;;;14.98;100.00
11198;BME280;5655;48.744;9.162;2023-03-30T10:31:52;95822.06;;;15.20;100.00
11198;BME280;5655;48.744;9.162;2023-03-30T10:34:33;95829.69;;;15.25;100.00
11198;BME280;5655;48.744;9.162;2023-03-30T10:37:03;95796.75;;;15.11;100.00
11198;BME280;5655;48.744;9.162;2023-03-30T10:39:31;95807.03;;;15.23;100.00
11198;BME280;5655;48.744;9.162;2023-03-30T10:41:59;95809.09;;;15.12;100.00
11198;BME280;5655;48.744;9.162;2023-03-30T10:44:35;95816.78;;;15.13;100.00
11198;BME280;5655;48.744;9.162;2023-03-30T11:01:12;95808.06;;;15.59;100.00
11198;BME280;5655;48.744;9.162;2023-03-30T11:03:45;95792.34;;;15.24;100.00
11198;BME280;5655;48.744;9.162;2023-03-30T11:06:20;95777.44;;;15.16;100.00
11198;BME280;5655;48.744;9.162;2023-03-30T11:08:50;95762.38;;;15.45;100.00
11198;BME280;5655;48.744;9.162;2023-03-30T11:11:35;95768.41;;;15.56;100.00
11198;BME280;5655;48.744;9.162;2023-03-30T11:14:07;95788.59;;;15.44;100.00
11198;BME280;5655;48.744;9.162;2023-03-30T11:16:52;95788.03;;;15.30;100.00
11198;BME280;5655;48.744;9.162;2023-03-30T11:19:35;95762.63;;;15.31;100.00
11198;BME280;5655;48.744;9.162;2023-03-30T11:24:56;95775.13;;;15.18;100.00
11198;BME280;5655;48.744;9.162;2023-03-30T11:27:30;95777.25;;;15.30;100.00
11198;BME280;5655;48.744;9.162;2023-03-30T11:30:06;95775.16;;;15.41;100.00
11198;BME280;5655;48.744;9.162;2023-03-30T11:32:44;95790.16;;;15.42;100.00
11198;BME280;5655;48.744;9.162;2023-03-30T11:38:01;95806.72;;;15.71;100.00
11198;BME280;5655;48.744;9.162;2023-03-30T11:40:45;95795.44;;;15.49;100.00
11198;BME280;5655;48.744;9.162;2023-03-30T11:43:12;95803.28;;;15.94;100.00
11198;BME280;5655;48.744;9.162;2023-03-30T11:48:39;95787.16;;;15.90;100.00
11198;BME280;5655;48.744;9.162;2023-03-30T11:59:02;95801.16;;;15.81;100.00
11198;BME280;5655;48.744;9.162;2023-03-30T12:01:48;95805.84;;;15.77;100.00
11198;BME280;5655;48.744;9.162;2023-03-30T12:04:25;95814.53;;;15.65;100.00
11198;BME280;5655;48.744;9.162;2023-03-30T12:06:59;95828.75;;;15.93;100.00
11198;BME280;5655;48.744;9.162;2023-03-30T12:09:54;95824.00;;;16.00;100.00
11198;BME280;5655;48.744;9.162;2023-03-30T12:12:29;95817.72;;;16.07;100.00
11198;BME280;5655;48.744;9.162;2023-03-30T12:22:40;95812.84;;;15.98;100.00
11198;BME280;5655;48.744;9.162;2023-03-30T12:30:28;95785.91;;;16.18;100.00
11198;BME280;5655;48.744;9.162;2023-03-30T12:33:05;95796.94;;;16.04;100.00
11198;BME280;5655;48.744;9.162;2023-03-30T12:38:20;95821.81;;;17.01;100.00
11198;BME280;5655;48.744;9.162;2023-03-30T12:40:52;95813.31;;;16.83;100.00
11198;BME280;5655;48.744;9.162;2023-03-30T12:43:40;95807.00;;;16.46;100.00
11198;BME280;5655;48.744;9.162;2023-03-30T12:48:51;95812.84;;;17.59;100.00
11198;BME280;5655;48.744;9.162;2023-03-30T12:51:25;95800.84;;;17.24;100.00
11198;BME280;5655;48.744;9.162;2023-03-30T12:57:06;95793.22;;;17.55;100.00
11198;BME280;5655;48.744;9.162;2023-03-30T13:05:38;95780.94;;;17.15;100.00
11198;BME280;5655;48.744;9.162;2023-03-30T13:08:18;95777.78;;;17.00;100.00
11198;BME280;5655;48.744;9.162;2023-03-30T13:10:45;95774.34;;;17.00;100.00
11198;BME280;5655;48.744;9.162;2023-03-30T13:13:22;95782.25;;;17.62;100.00
11198;BME280;5655;48.744;9.162;2023-03-30T13:15:52;95766.94;;;17.88;100.00
11198;BME280;5655;48.744;9.162;2023-03-30T13:18:29;95768.78;;;17.91;100.00
11198;BME280;5655;48.744;9.162;2023-03-30T13:26:20;95766.13;;;18.20;100.00
11198;BME280;5655;48.744;9.162;2023-03-30T13:31:30;95764.41;;;18.26;100.00
11198;BME280;5655;48.744;9.162;2023-03-30T13:34:10;95768.31;;;18.25;100.00
11198;BME280;5655;48.744;9.162;2023-03-30T13:36:50;95766.69;;;18.28;100.00
11198;BME280;5655;48.744;9.162;2023-03-30T13:39:27;95774.09;;;18.11;100.00
11198;BME280;5655;48.744;9.162;2023-03-30T13:41:58;95777.19;;;17.64;100.00
11198;BME280;5655;48.744;9.162;2023-03-30T13:50:03;95767.69;;;17.89;100.00
11198;BME280;5655;48.744;9.162;2023-03-30T13:52:43;95769.13;;;17.93;100.00
11198;BME280;5655;48.744;9.162;2023-03-30T13:55:29;95769.25;;;18.19;100.00
11198;BME280;5655;48.744;9.162;2023-03-30T13:58:18;95752.53;;;18.36;100.00
11198;BME280;5655;48.744;9.162;2023-03-30T14:00:53;95751.56;;;18.14;100.00
11198;BME280;5655;48.744;9.162;2023-03-30T14:03:32;95755.41;;;18.00;100.00
11198;BME280;5655;48.744;9.162;2023-03-30T14:08:39;95738.50;;;18.25;100.00
11198;BME280;5655;48.744;9.162;2023-03-30T14:11:14;95730.00;;;18.39;100.00
11198;BME280;5655;48.744;9.162;2023-03-30T14:13:42;95739.41;;;18.35;100.00
11198;BME280;5655;48.744;9.162;2023-03-30T14:16:11;95734.56;;;18.42;100.00
11198;BME280;5655;48.744;9.162;2023-03-30T14:18:37;95738.63;;;18.05;100.00
11198;BME280;5655;48.744;9.162;2023-03-30T14:21:05;95729.53;;;18.57;100.00
11198;BME280;5655;48.744;9.162;2023-03-30T14:24:01;95734.56;;;18.13;100.00
11198;BME280;5655;48.744;9.162;2023-03-30T14:26:28;95744.09;;;17.73;100.00
11198;BME280;5655;48.744;9.162;2023-03-30T14:28:56;95753.81;;;17.87;100.00
11198;BME280;5655;48.744;9.162;2023-03-30T14:31:22;95766.13;;;18.04;100.00
11198;BME280;5655;48.744;9.162;2023-03-30T14:33:47;95762.94;;;17.93;100.00
11198;BME280;5655;48.744;9.162;2023-03-30T14:36:15;95753.97;;;17.47;100.00
11198;BME280;5655;48.744;9.162;2023-03-30T14:39:00;95744.91;;;17.38;100.00
11198;BME280;5655;48.744;9.162;2023-03-30T14:41:26;95733.53;;;17.27;100.00
11198;BME280;5655;48.744;9.162;2023-03-30T14:44:00;95738.72;;;17.37;100.00
11198;BME280;5655;48.744;9.162;2023-03-30T14:46:38;95744.13;;;17.37;100.00
11198;BME280;5655;48.744;9.162;2023-03-30T14:49:04;95744.81;;;17.41;100.00
11198;BME280;5655;48.744;9.162;2023-03-30T14:51:38;95743.50;;;17.65;100.00
11198;BME280;5655;48.744;9.162;2023-03-30T14:54:06;95761.25;;;17.83;100.00
11198;BME280;5655;48.744;9.162;2023-03-30T14:56:32;95745.59;;;17.42;100.00
11198;BME280;5655;48.744;9.162;2023-03-30T14:58:58;95748.53;;;17.31;100.00
11198;BME280;5655;48.744;9.162;2023-03-30T15:01:28;95749.88;;;17.23;100.00
11198;BME280;5655;48.744;9.162;2023-03-30T15:04:00;95742.63;;;17.00;100.00
11198;BME280;5655;48.744;9.162;2023-03-30T15:06:28;95741.56;;;17.14;100.00
11198;BME280;5655;48.744;9.162;2023-03-30T15:08:59;95741.25;;;17.28;100.00
11198;BME280;5655;48.744;9.162;2023-03-30T15:11:26;95747.31;;;17.00;100.00
11198;BME280;5655;48.744;9.162;2023-03-30T15:13:55;95745.97;;;17.24;100.00